createdAt,value
2018-07-12T00:02:08.714Z,9.60
2018-07-12T00:04:36.647Z,9.73
2018-07-12T00:07:04.270Z,9.33
2018-07-12T00:09:31.882Z,10.47
2018-07-12T00:11:59.501Z,10.97
2018-07-12T00:14:27.152Z,10.20
2018-07-12T00:16:54.650Z,10.07
2018-07-12T00:19:22.090Z,9.90
2018-07-12T00:21:50.331Z,9.50
2018-07-12T00:24:18.818Z,8.90
2018-07-12T00:26:46.366Z,9.70
2018-07-12T00:29:14.068Z,9.30
2018-07-12T00:31:41.487Z,9.73
2018-07-12T00:34:08.947Z,8.73
2018-07-12T00:36:38.580Z,9.40
2018-07-12T00:39:07.067Z,9.87
2018-07-12T00:41:34.671Z,9.90
2018-07-12T00:44:03.085Z,8.83
2018-07-12T00:46:30.672Z,9.37
2018-07-12T00:48:58.644Z,8.83
2018-07-12T00:51:26.082Z,8.70
2018-07-12T00:53:53.825Z,8.80
2018-07-12T00:56:21.287Z,8.13
2018-07-12T00:58:49.371Z,8.80
2018-07-12T01:01:16.854Z,9.27
2018-07-12T01:03:44.497Z,8.67
2018-07-12T01:06:11.895Z,8.27
2018-07-12T01:08:39.336Z,8.23
2018-07-12T01:11:06.773Z,8.20
2018-07-12T01:13:34.451Z,7.63
2018-07-12T01:16:01.890Z,8.37
2018-07-12T01:18:29.432Z,8.23
2018-07-12T01:20:57.097Z,7.80
2018-07-12T01:23:24.520Z,7.97
2018-07-12T01:25:51.987Z,8.40
2018-07-12T01:28:19.840Z,8.20
2018-07-12T01:30:47.251Z,8.23
2018-07-12T01:33:14.715Z,8.37
2018-07-12T01:35:44.055Z,8.33
2018-07-12T01:38:11.543Z,8.07
2018-07-12T01:40:39.031Z,8.13
2018-07-12T01:43:06.733Z,7.70
2018-07-12T01:45:35.420Z,8.57
2018-07-12T01:48:02.897Z,8.57
2018-07-12T01:50:30.947Z,8.20
2018-07-12T01:52:58.367Z,8.00
2018-07-12T01:55:26.083Z,7.90
2018-07-12T01:57:54.103Z,8.90
2018-07-12T02:00:21.632Z,8.40
2018-07-12T02:02:49.395Z,8.13
2018-07-12T02:05:17.218Z,8.07
2018-07-12T02:07:44.717Z,8.37
2018-07-12T02:10:12.298Z,8.03
2018-07-12T02:12:40.009Z,8.10
2018-07-12T02:15:07.554Z,7.60
2018-07-12T02:17:35.067Z,8.20
2018-07-12T02:20:03.414Z,7.67
2018-07-12T02:22:30.866Z,7.50
2018-07-12T02:24:58.422Z,8.40
2018-07-12T02:27:25.980Z,7.40
2018-07-12T02:29:53.520Z,7.57
2018-07-12T02:32:21.059Z,8.10
2018-07-12T02:34:48.739Z,8.13
2018-07-12T02:37:16.261Z,7.90
2018-07-12T02:39:43.772Z,7.87
2018-07-12T02:42:11.244Z,8.23
2018-07-12T02:44:38.732Z,8.30
2018-07-12T02:47:06.143Z,7.90
2018-07-12T02:49:33.870Z,7.83
2018-07-12T02:52:01.363Z,7.50
2018-07-12T02:54:28.861Z,7.40
2018-07-12T02:56:56.391Z,7.90
2018-07-12T02:59:23.887Z,7.83
2018-07-12T03:01:51.376Z,7.47
2018-07-12T03:04:19.058Z,7.30
2018-07-12T03:06:47.478Z,7.37
2018-07-12T03:09:15.244Z,7.40
2018-07-12T03:11:42.827Z,8.30
2018-07-12T03:14:10.323Z,7.93
2018-07-12T03:16:38.634Z,7.87
2018-07-12T03:19:06.145Z,6.90
2018-07-12T03:21:33.824Z,7.00
2018-07-12T03:24:01.336Z,6.93
2018-07-12T03:26:28.807Z,7.13
2018-07-12T03:28:56.282Z,7.43
2018-07-12T03:31:23.747Z,7.40
2018-07-12T03:33:51.657Z,7.23
2018-07-12T03:36:19.177Z,7.07
2018-07-12T03:38:47.203Z,8.87
2018-07-12T03:41:14.688Z,8.03
2018-07-12T03:43:42.155Z,8.13
2018-07-12T03:46:09.639Z,7.77
2018-07-12T03:48:37.123Z,8.40
2018-07-12T03:51:04.615Z,8.17
2018-07-12T03:53:32.059Z,8.30
2018-07-12T03:55:59.716Z,10.03
2018-07-12T03:58:27.388Z,10.17
2018-07-12T04:00:54.855Z,10.07
2018-07-12T04:03:22.419Z,10.23
2018-07-12T04:05:49.879Z,10.53
2018-07-12T04:08:17.552Z,11.20
2018-07-12T04:10:45.009Z,12.53
2018-07-12T04:13:13.127Z,10.17
2018-07-12T04:15:40.809Z,9.90
2018-07-12T04:18:08.507Z,10.53
2018-07-12T04:20:35.943Z,10.33
2018-07-12T04:23:03.349Z,10.03
2018-07-12T04:25:30.702Z,9.97
2018-07-12T04:27:58.190Z,11.03
2018-07-12T04:30:25.907Z,11.60
2018-07-12T04:32:53.440Z,10.90
2018-07-12T04:35:20.821Z,10.30
2018-07-12T04:37:48.174Z,11.17
2018-07-12T04:40:15.546Z,11.20
2018-07-12T04:42:42.941Z,11.23
2018-07-12T04:45:10.333Z,12.80
2018-07-12T04:47:37.675Z,10.63
2018-07-12T04:50:05.062Z,11.00
2018-07-12T04:52:32.423Z,11.23
2018-07-12T04:54:59.779Z,12.10
2018-07-12T04:57:27.174Z,11.43
2018-07-12T04:59:54.536Z,20.87
2018-07-12T05:02:21.970Z,10.67
2018-07-12T05:04:49.443Z,11.40
2018-07-12T05:07:16.876Z,11.33
2018-07-12T05:09:44.238Z,11.20
2018-07-12T05:12:11.569Z,11.70
2018-07-12T05:14:39.049Z,11.70
2018-07-12T05:17:06.435Z,12.03
2018-07-12T05:19:33.788Z,12.50
2018-07-12T05:22:01.242Z,12.83
2018-07-12T05:24:28.574Z,11.80
2018-07-12T05:26:55.941Z,11.73
2018-07-12T05:29:23.327Z,11.77
2018-07-12T05:31:50.695Z,12.97
2018-07-12T05:34:18.096Z,12.00
2018-07-12T05:36:56.715Z,11.47
2018-07-12T05:39:25.487Z,12.43
2018-07-12T05:41:54.229Z,12.97
2018-07-12T05:44:23.051Z,12.27
2018-07-12T05:46:51.806Z,11.93
2018-07-12T05:49:20.798Z,11.88
2018-07-12T05:51:49.470Z,13.28
2018-07-12T05:54:19.194Z,14.15
2018-07-12T05:56:48.391Z,14.13
2018-07-12T05:59:17.652Z,13.78
2018-07-12T06:01:57.800Z,13.32
2018-07-12T06:04:26.445Z,12.85
2018-07-12T06:06:55.227Z,13.35
2018-07-12T06:09:23.927Z,12.63
2018-07-12T06:11:52.711Z,13.28
2018-07-12T06:14:21.430Z,13.58
2018-07-12T06:16:50.137Z,13.22
2018-07-12T06:19:18.965Z,12.95
2018-07-12T06:21:47.870Z,13.32
2018-07-12T06:24:16.701Z,12.95
2018-07-12T06:26:45.400Z,11.28
2018-07-12T06:29:14.077Z,11.85
2018-07-12T06:31:42.894Z,12.68
2018-07-12T06:34:11.611Z,12.40
2018-07-12T06:36:40.531Z,11.25
2018-07-12T06:39:11.140Z,11.45
2018-07-12T06:41:40.192Z,11.45
2018-07-12T06:44:08.859Z,12.75
2018-07-12T06:46:37.608Z,11.22
2018-07-12T06:49:06.526Z,12.55
2018-07-12T06:51:35.279Z,13.58
2018-07-12T06:54:04.646Z,12.47
2018-07-12T06:56:33.323Z,11.25
2018-07-12T06:59:02.012Z,11.83
2018-07-12T07:01:30.787Z,11.12
2018-07-12T07:03:59.811Z,11.75
2018-07-12T07:06:28.704Z,12.50
2018-07-12T07:08:57.720Z,13.03
2018-07-12T07:11:26.477Z,11.85
2018-07-12T07:13:55.411Z,12.43
2018-07-12T07:16:24.389Z,12.05
2018-07-12T07:18:53.091Z,11.68
2018-07-12T07:21:23.461Z,12.00
2018-07-12T07:23:52.944Z,11.08
2018-07-12T07:26:22.544Z,10.72
2018-07-12T07:28:51.421Z,10.82
2018-07-12T07:31:20.240Z,10.25
2018-07-12T07:33:49.063Z,10.35
2018-07-12T07:36:18.787Z,10.95
2018-07-12T07:38:47.566Z,10.60
2018-07-12T07:41:16.575Z,8.88
2018-07-12T07:43:45.403Z,9.15
2018-07-12T07:46:14.462Z,10.50
2018-07-12T07:48:44.530Z,9.70
2018-07-12T07:51:13.447Z,9.63
2018-07-12T07:53:42.548Z,9.20
2018-07-12T07:56:11.466Z,8.08
2018-07-12T07:58:40.427Z,8.70
2018-07-12T08:01:09.866Z,9.08
2018-07-12T08:03:38.909Z,10.20
2018-07-12T08:06:08.031Z,9.10
2018-07-12T08:08:36.942Z,8.95
2018-07-12T08:11:06.769Z,9.35
2018-07-12T08:13:35.484Z,8.80
2018-07-12T08:16:05.485Z,9.10
2018-07-12T08:18:34.352Z,8.83
2018-07-12T08:21:03.456Z,7.95
2018-07-12T08:23:33.770Z,7.45
2018-07-12T08:26:02.702Z,7.12
2018-07-12T08:28:32.066Z,8.08
2018-07-12T08:31:00.789Z,8.20
2018-07-12T08:33:29.715Z,8.88
2018-07-12T08:35:58.400Z,9.20
2018-07-12T08:38:27.227Z,8.50
2018-07-12T08:40:55.907Z,8.05
2018-07-12T08:43:24.704Z,8.10
2018-07-12T08:45:53.377Z,7.92
2018-07-12T08:48:22.179Z,8.10
2018-07-12T08:50:51.617Z,8.40
2018-07-12T08:53:21.351Z,7.50
2018-07-12T08:55:50.283Z,7.50
2018-07-12T08:58:19.191Z,7.53
2018-07-12T09:00:48.662Z,7.65
2018-07-12T09:03:18.125Z,6.70
2018-07-12T09:05:47.054Z,6.95
2018-07-12T09:08:16.021Z,7.10
2018-07-12T09:10:44.987Z,7.97
2018-07-12T09:13:13.790Z,9.75
2018-07-12T09:15:42.772Z,7.55
2018-07-12T09:18:11.590Z,7.72
2018-07-12T09:20:40.496Z,7.08
2018-07-12T09:23:10.384Z,6.72
2018-07-12T09:25:39.562Z,6.65
2018-07-12T09:28:08.295Z,7.40
2018-07-12T09:30:37.039Z,6.55
2018-07-12T09:33:06.388Z,6.17
2018-07-12T09:35:35.734Z,6.50
2018-07-12T09:38:06.111Z,8.25
2018-07-12T09:40:35.725Z,7.37
2018-07-12T09:43:04.904Z,7.35
2018-07-12T09:45:33.504Z,7.35
2018-07-12T09:48:02.999Z,7.72
2018-07-12T09:50:32.489Z,7.83
2018-07-12T09:53:01.389Z,7.20
2018-07-12T09:55:30.617Z,6.55
2018-07-12T09:58:11.168Z,7.15
2018-07-12T10:00:45.092Z,7.62
2018-07-12T10:03:18.910Z,7.42
2018-07-12T10:05:52.718Z,7.05
2018-07-12T10:08:26.645Z,6.55
2018-07-12T10:11:00.644Z,6.75
2018-07-12T10:13:33.554Z,6.37
2018-07-12T10:16:04.911Z,6.80
2018-07-12T10:18:34.136Z,6.60
2018-07-12T10:21:02.884Z,6.40
2018-07-12T10:23:31.729Z,6.25
2018-07-12T10:26:00.580Z,5.85
2018-07-12T10:28:29.772Z,6.10
2018-07-12T10:30:59.072Z,5.72
2018-07-12T10:33:29.006Z,6.40
2018-07-12T10:35:58.749Z,6.20
2018-07-12T10:38:27.583Z,6.10
2018-07-12T10:40:56.537Z,5.20
2018-07-12T10:43:25.289Z,5.28
2018-07-12T10:45:55.022Z,5.95
2018-07-12T10:48:24.044Z,4.90
2018-07-12T10:50:52.968Z,4.40
2018-07-12T10:53:22.296Z,4.08
2018-07-12T10:55:51.277Z,5.25
2018-07-12T10:58:20.956Z,4.80
2018-07-12T11:00:49.694Z,5.15
2018-07-12T11:03:19.383Z,5.67
2018-07-12T11:05:49.746Z,5.40
2018-07-12T11:08:18.760Z,6.50
2018-07-12T11:10:48.311Z,6.45
2018-07-12T11:13:18.813Z,26.20
2018-07-12T11:15:48.927Z,12.75
2018-07-12T11:18:18.805Z,6.42
2018-07-12T11:20:47.838Z,6.60
2018-07-12T11:23:16.651Z,6.95
2018-07-12T11:25:45.670Z,6.03
2018-07-12T11:28:14.513Z,6.83
2018-07-12T11:30:43.731Z,6.47
2018-07-12T11:33:51.347Z,6.50
2018-07-12T11:36:20.709Z,6.17
2018-07-12T11:38:49.609Z,6.28
2018-07-12T11:41:19.355Z,7.20
2018-07-12T11:43:48.778Z,7.08
2018-07-12T11:46:18.437Z,6.12
2018-07-12T11:48:47.628Z,7.15
2018-07-12T11:51:16.464Z,6.28
2018-07-12T11:53:45.611Z,6.22
2018-07-12T11:56:14.502Z,6.60
2018-07-12T11:58:43.728Z,6.40
2018-07-12T12:01:12.535Z,6.67
2018-07-12T12:03:41.270Z,6.45
2018-07-12T12:06:10.254Z,5.87
2018-07-12T12:08:40.064Z,6.55
2018-07-12T12:11:09.092Z,6.05
2018-07-12T12:13:38.482Z,5.70
2018-07-12T12:16:07.835Z,6.00
2018-07-12T12:18:37.295Z,5.08
2018-07-12T12:21:07.154Z,5.00
2018-07-12T12:23:36.545Z,5.75
2018-07-12T12:26:05.504Z,5.60
2018-07-12T12:28:34.383Z,5.90
2018-07-12T12:31:03.702Z,6.72
2018-07-12T12:33:32.649Z,5.25
2018-07-12T12:36:02.503Z,5.83
2018-07-12T12:38:31.754Z,5.50
2018-07-12T12:41:01.451Z,5.55
2018-07-12T12:43:30.747Z,6.05
2018-07-12T12:45:59.828Z,5.15
2018-07-12T12:48:48.075Z,5.35
2018-07-12T12:51:20.502Z,7.08
2018-07-12T12:53:51.669Z,5.85
2018-07-12T12:56:20.615Z,6.12
2018-07-12T12:58:50.087Z,6.83
2018-07-12T13:01:18.943Z,6.05
2018-07-12T13:03:47.776Z,6.72
2018-07-12T13:06:16.892Z,6.70
2018-07-12T13:08:46.725Z,6.50
2018-07-12T13:11:16.113Z,6.15
2018-07-12T13:13:45.398Z,6.92
2018-07-12T13:16:14.515Z,6.62
2018-07-12T13:18:43.546Z,6.92
2018-07-12T13:21:13.466Z,7.28
2018-07-12T13:23:43.595Z,7.28
2018-07-12T13:26:12.469Z,7.20
2018-07-12T13:28:41.717Z,7.40
2018-07-12T13:31:10.903Z,9.18
2018-07-12T13:33:39.790Z,9.15
2018-07-12T13:36:08.521Z,7.50
2018-07-12T13:38:37.341Z,8.80
2018-07-12T13:41:06.223Z,8.60
2018-07-12T13:43:35.184Z,5.70
2018-07-12T13:46:03.991Z,5.92
2018-07-12T13:48:32.786Z,6.90
2018-07-12T13:51:01.897Z,6.72
2018-07-12T13:53:30.742Z,6.28
2018-07-12T13:55:59.528Z,6.80
2018-07-12T13:58:28.344Z,6.83
2018-07-12T14:00:57.251Z,6.60
2018-07-12T14:03:26.064Z,9.25
2018-07-12T14:05:54.907Z,7.25
2018-07-12T14:08:23.728Z,6.72
2018-07-12T14:10:53.418Z,7.72
2018-07-12T14:13:22.579Z,6.87
2018-07-12T14:15:51.254Z,7.30
2018-07-12T14:18:20.113Z,9.18
2018-07-12T14:20:48.957Z,7.85
2018-07-12T14:23:17.935Z,7.12
2018-07-12T14:25:46.727Z,5.70
2018-07-12T14:28:16.180Z,6.53
2018-07-12T14:30:45.277Z,6.42
2018-07-12T14:33:14.204Z,6.42
2018-07-12T14:35:43.040Z,6.30
2018-07-12T14:38:11.923Z,6.95
2018-07-12T14:40:40.913Z,7.15
2018-07-12T14:43:09.870Z,7.85
2018-07-12T14:45:38.946Z,6.05
2018-07-12T14:48:07.891Z,6.92
2018-07-12T14:50:36.754Z,5.50
2018-07-12T14:53:05.603Z,6.40
2018-07-12T14:55:34.656Z,6.65
2018-07-12T14:58:03.855Z,5.65
2018-07-12T15:00:32.665Z,9.67
2018-07-12T15:03:02.740Z,6.20
2018-07-12T15:05:32.035Z,8.70
2018-07-12T15:08:00.820Z,7.00
2018-07-12T15:10:30.144Z,6.70
2018-07-12T15:12:59.826Z,6.53
2018-07-12T15:15:29.428Z,8.87
2018-07-12T15:17:58.096Z,6.40
2018-07-12T15:20:26.876Z,6.30
2018-07-12T15:23:00.984Z,5.90
2018-07-12T15:25:29.694Z,7.00
2018-07-12T15:27:58.515Z,6.50
2018-07-12T15:30:27.216Z,8.23
2018-07-12T15:33:05.677Z,6.67
2018-07-12T15:35:34.520Z,6.60
2018-07-12T15:38:16.967Z,6.60
2018-07-12T15:40:54.567Z,6.47
2018-07-12T15:43:23.419Z,10.40
2018-07-12T15:45:52.239Z,6.90
2018-07-12T15:48:30.600Z,8.07
2018-07-12T15:50:59.395Z,6.57
2018-07-12T15:53:28.066Z,7.37
2018-07-12T15:55:56.799Z,9.10
2018-07-12T15:58:25.468Z,7.33
2018-07-12T16:00:54.139Z,7.90
2018-07-12T16:03:22.892Z,6.60
2018-07-12T16:06:01.271Z,6.90
2018-07-12T16:08:29.935Z,7.20
2018-07-12T16:11:00.076Z,11.67
2018-07-12T16:13:41.358Z,7.90
2018-07-12T16:16:10.190Z,11.93
2018-07-12T16:18:38.831Z,8.03
2018-07-12T16:21:07.643Z,7.87
2018-07-12T16:23:45.823Z,7.87
2018-07-12T16:26:22.243Z,8.33
2018-07-12T16:28:50.929Z,7.57
2018-07-12T16:31:19.723Z,24.33
2018-07-12T16:33:48.598Z,12.00
2018-07-12T16:36:17.352Z,8.43
2018-07-12T16:38:46.066Z,7.50
2018-07-12T16:41:14.841Z,9.23
2018-07-12T16:43:43.669Z,8.90
2018-07-12T16:46:12.656Z,7.63
2018-07-12T16:48:41.393Z,7.23
2018-07-12T16:51:10.119Z,7.63
2018-07-12T16:53:38.815Z,7.47
2018-07-12T16:56:07.835Z,7.80
2018-07-12T16:58:36.608Z,12.03
2018-07-12T17:01:05.301Z,7.77
2018-07-12T17:03:34.216Z,7.27
2018-07-12T17:06:02.900Z,8.80
2018-07-12T17:08:31.619Z,8.47
2018-07-12T17:11:03.358Z,10.87
2018-07-12T17:13:40.318Z,12.40
2018-07-12T17:16:09.015Z,8.27
2018-07-12T17:18:38.315Z,8.17
2018-07-12T17:21:07.018Z,8.40
2018-07-12T17:23:35.975Z,9.27
2018-07-12T17:26:04.993Z,8.77
2018-07-12T17:28:34.026Z,8.53
2018-07-12T17:31:02.794Z,7.57
2018-07-12T17:33:31.921Z,8.27
2018-07-12T17:36:00.836Z,7.50
2018-07-12T17:38:29.552Z,8.40
2018-07-12T17:40:58.380Z,7.50
2018-07-12T17:43:27.152Z,8.23
2018-07-12T17:45:56.137Z,8.20
2018-07-12T17:48:24.888Z,8.13
2018-07-12T17:50:53.608Z,7.10
2018-07-12T17:53:28.120Z,7.57
2018-07-12T17:55:56.933Z,8.37
2018-07-12T17:58:25.785Z,10.57
2018-07-12T18:00:54.530Z,9.97
2018-07-12T18:03:23.247Z,8.50
2018-07-12T18:05:52.102Z,11.87
2018-07-12T18:08:20.855Z,10.90
2018-07-12T18:10:49.802Z,10.17
2018-07-12T18:13:18.799Z,9.53
2018-07-12T18:15:47.801Z,9.97
2018-07-12T18:18:16.697Z,14.00
2018-07-12T18:20:46.796Z,17.27
2018-07-12T18:23:15.528Z,16.87
2018-07-12T18:25:44.343Z,22.77
2018-07-12T18:28:13.404Z,11.70
2018-07-12T18:30:42.923Z,30.97
2018-07-12T18:33:11.735Z,20.07
2018-07-12T18:35:40.478Z,10.83
2018-07-12T18:38:09.741Z,9.80
2018-07-12T18:40:38.533Z,11.13
2018-07-12T18:43:07.360Z,11.23
2018-07-12T18:45:36.271Z,13.73
2018-07-12T18:48:04.940Z,10.77
2018-07-12T18:50:33.611Z,12.70
2018-07-12T18:53:02.282Z,13.97
2018-07-12T18:55:30.932Z,11.07
2018-07-12T18:57:59.556Z,10.47
2018-07-12T19:00:28.449Z,10.93
2018-07-12T19:02:57.188Z,8.93
2018-07-12T19:05:25.826Z,9.63
2018-07-12T19:07:54.501Z,10.43
2018-07-12T19:10:23.200Z,12.20
2018-07-12T19:12:51.887Z,7.97
2018-07-12T19:15:20.687Z,10.73
2018-07-12T19:17:49.326Z,16.00
2018-07-12T19:20:18.116Z,10.57
2018-07-12T19:22:46.903Z,8.17
2018-07-12T19:25:15.592Z,8.33
2018-07-12T19:27:44.376Z,8.63
2018-07-12T19:30:17.059Z,9.27
2018-07-12T19:32:45.851Z,12.00
2018-07-12T19:35:15.269Z,12.07
2018-07-12T19:37:44.021Z,9.17
2018-07-12T19:40:13.019Z,9.20
2018-07-12T19:42:41.700Z,9.70
2018-07-12T19:45:10.435Z,8.97
2018-07-12T19:47:39.171Z,8.67
2018-07-12T19:50:07.915Z,8.90
2018-07-12T19:52:36.588Z,12.30
2018-07-12T19:55:05.444Z,18.97
2018-07-12T19:57:34.292Z,13.10
2018-07-12T20:00:03.750Z,10.10
2018-07-12T20:02:32.794Z,10.27
2018-07-12T20:05:02.655Z,10.43
2018-07-12T20:07:31.399Z,10.53
2018-07-12T20:10:00.143Z,10.57
2018-07-12T20:12:28.981Z,10.70
2018-07-12T20:14:57.839Z,13.60
2018-07-12T20:17:29.828Z,12.57
2018-07-12T20:19:58.645Z,11.93
2018-07-12T20:22:41.840Z,11.00
2018-07-12T20:25:12.308Z,10.83
2018-07-12T20:27:41.382Z,11.87
2018-07-12T20:30:10.065Z,11.97
2018-07-12T20:32:38.809Z,12.47
2018-07-12T20:35:11.232Z,12.30
2018-07-12T20:37:40.456Z,11.87
2018-07-12T20:40:09.612Z,13.57
2018-07-12T20:42:38.288Z,12.03
2018-07-12T20:45:07.325Z,12.03
2018-07-12T20:47:36.374Z,10.90
2018-07-12T20:50:05.256Z,9.83
2018-07-12T20:52:34.143Z,11.00
2018-07-12T20:55:02.809Z,11.87
2018-07-12T20:57:31.499Z,14.83
2018-07-12T21:00:00.186Z,16.37
2018-07-12T21:03:14.534Z,15.47
2018-07-12T21:06:01.040Z,13.63
2018-07-12T21:08:29.743Z,13.47
2018-07-12T21:10:58.451Z,12.97
2018-07-12T21:13:27.212Z,12.13
2018-07-12T21:15:55.935Z,11.63
2018-07-12T21:18:25.496Z,10.77
2018-07-12T21:20:54.483Z,11.90
2018-07-12T21:23:23.259Z,11.67
2018-07-12T21:25:51.994Z,10.50
2018-07-12T21:28:20.703Z,9.60
2018-07-12T21:30:49.450Z,8.97
2018-07-12T21:33:18.255Z,9.37
2018-07-12T21:35:46.957Z,9.80
2018-07-12T21:38:15.660Z,11.03
2018-07-12T21:40:44.386Z,10.27
2018-07-12T21:43:13.063Z,9.07
2018-07-12T21:45:41.782Z,8.80
2018-07-12T21:48:10.480Z,8.57
2018-07-12T21:50:39.166Z,9.20
2018-07-12T21:53:07.859Z,8.23
2018-07-12T21:55:36.684Z,9.03
2018-07-12T21:58:05.367Z,9.33
2018-07-12T22:00:34.207Z,9.20
2018-07-12T22:03:02.991Z,9.20
2018-07-12T22:05:31.748Z,8.77
2018-07-12T22:08:40.703Z,9.93
2018-07-12T22:11:09.932Z,9.73
2018-07-12T22:13:38.949Z,9.13
2018-07-12T22:16:07.690Z,9.10
2018-07-12T22:18:36.400Z,10.33
2018-07-12T22:21:05.185Z,10.57
2018-07-12T22:23:33.894Z,10.17
2018-07-12T22:26:02.574Z,10.13
2018-07-12T22:28:31.508Z,9.80
2018-07-12T22:31:00.257Z,9.73
2018-07-12T22:33:28.945Z,9.73
2018-07-12T22:35:57.628Z,10.00
2018-07-12T22:38:26.534Z,9.70
2018-07-12T22:40:55.176Z,9.70
2018-07-12T22:43:23.871Z,9.97
2018-07-12T22:45:52.951Z,9.90
2018-07-12T22:48:21.996Z,10.17
2018-07-12T22:50:50.524Z,10.00
2018-07-12T22:53:19.168Z,9.17
2018-07-12T22:55:47.856Z,8.83
2018-07-12T22:58:16.482Z,9.23
2018-07-12T23:00:45.226Z,8.60
2018-07-12T23:03:13.916Z,8.90
2018-07-12T23:05:42.600Z,9.00
2018-07-12T23:08:11.279Z,8.70
2018-07-12T23:10:39.964Z,8.27
2018-07-12T23:13:08.658Z,8.67
2018-07-12T23:15:37.391Z,8.93
2018-07-12T23:18:06.162Z,8.40
2018-07-12T23:20:35.083Z,8.20
2018-07-12T23:23:03.777Z,8.50
2018-07-12T23:25:32.804Z,8.83
2018-07-12T23:28:01.799Z,8.97
2018-07-12T23:30:30.469Z,8.77
2018-07-12T23:32:59.148Z,8.50
2018-07-12T23:35:27.795Z,8.57
2018-07-12T23:37:56.440Z,8.70
2018-07-12T23:40:25.135Z,9.03
2018-07-12T23:42:54.124Z,9.10
2018-07-12T23:45:23.098Z,9.43
2018-07-12T23:47:51.754Z,9.17
2018-07-12T23:50:20.446Z,10.30
2018-07-12T23:52:49.151Z,9.40
2018-07-12T23:55:18.087Z,9.43
2018-07-12T23:57:46.754Z,9.33
